Turton, South Dakota
Current Conditions -  °F | °C
As of 1:53 PM on Thursday 29 Jan 2015 (Local Time) from KABR Reporting Station
Overcast Overcast  
Wind Chill: 16°   Ceiling: 2000
Heat Index: 27°   Visibility: 10mi
Dew Point: 18°   Wind: 14mph
Humidity: 69%   Direction: 350°N
Pressure: 30.49"   Gusts: NA
Location:  45.05°N, 98.1°W
Report Text: KABR 291953Z AUTO 35012KT 10SM OVC020 M03/M08 A3049 RMK AO2 SLP341 T10281078
Loading
Personal Weather Stations






























Interactive Weather Map New forecast layout! Learn more

10-Day Weather Forecast

Advertisements
Track Severe Weather on mobile